Asan, Guam
Current Conditions -  °F | °C
As of 3:54 PM on Sunday 23 Nov 2014 (Local Time) from PGUM Reporting Station
Light Rain Light Rain  
Wind Chill: 81°   Ceiling: Unl
Heat Index: 89°   Visibility: 8mi
Dew Point: 78°   Wind: 5mph
Humidity: 91%   Direction: 90°E
Pressure: 29.84"   Gusts: NA
Location:  13.47°N, 144.71°E
Report Text: PGUM 230554Z 09004KT 8SM -RA SCT011 27/26 A2984 RMK AO2 RAE33B52 SLP098 60025 P0007 T02720256 10311 20256 58005
Loading
Personal Weather Stations






























Interactive Weather Map New forecast layout! Learn more

10-Day Weather Forecast

Advertisements
Track Severe Weather on mobile